createdAt,value
2022-11-13T00:04:40.644Z,50.18
2022-11-13T00:07:13.905Z,50.88
2022-11-13T00:12:43.724Z,49.91
2022-11-13T00:15:18.042Z,50.49
2022-11-13T00:20:41.173Z,51.92
2022-11-13T00:23:12.853Z,51.33
2022-11-13T00:25:46.879Z,51.84
2022-11-13T00:37:16.946Z,51.10
2022-11-13T00:39:47.154Z,51.25
2022-11-13T00:42:24.836Z,52.20
2022-11-13T00:44:57.720Z,51.48
2022-11-13T00:47:30.464Z,51.58
2022-11-13T00:50:07.343Z,51.31
2022-11-13T00:52:39.055Z,51.28
2022-11-13T00:55:10.750Z,52.12
2022-11-13T00:57:42.121Z,51.75
2022-11-13T01:00:13.459Z,51.20
2022-11-13T01:02:49.229Z,50.83
2022-11-13T01:05:23.346Z,51.03
2022-11-13T01:07:54.722Z,51.46
2022-11-13T01:10:35.006Z,51.86
2022-11-13T01:13:13.835Z,52.04
2022-11-13T01:15:51.611Z,52.38
2022-11-13T01:18:26.725Z,52.99
2022-11-13T01:21:05.385Z,53.01
2022-11-13T01:23:33.956Z,52.13
2022-11-13T01:26:20.318Z,50.30
2022-11-13T01:29:10.661Z,50.67
2022-11-13T01:34:23.873Z,51.29
2022-11-13T01:39:45.831Z,52.83
2022-11-13T01:42:18.001Z,53.36
2022-11-13T01:44:49.876Z,54.43
2022-11-13T01:47:23.900Z,55.64
2022-11-13T01:49:55.929Z,57.08
2022-11-13T01:52:27.812Z,57.70
2022-11-13T01:55:03.440Z,57.45
2022-11-13T01:57:33.369Z,57.34
2022-11-13T02:00:09.505Z,57.17
2022-11-13T02:02:44.999Z,57.14
2022-11-13T02:05:16.251Z,56.92
2022-11-13T02:07:47.036Z,56.77
2022-11-13T02:13:08.349Z,57.39
2022-11-13T02:15:41.815Z,56.85
2022-11-13T02:18:14.075Z,56.93
2022-11-13T02:20:52.482Z,56.73
2022-11-13T02:23:29.987Z,56.82
2022-11-13T02:26:13.532Z,57.01
2022-11-13T02:28:44.295Z,56.32
2022-11-13T02:31:16.466Z,57.05
2022-11-13T02:33:48.284Z,56.89
2022-11-13T02:36:26.394Z,57.00
2022-11-13T02:39:00.001Z,56.63
2022-11-13T02:41:37.550Z,56.35
2022-11-13T02:44:11.021Z,55.91
2022-11-13T02:46:48.030Z,55.75
2022-11-13T02:49:24.244Z,56.57
2022-11-13T02:51:54.361Z,56.09
2022-11-13T02:54:43.752Z,55.34
2022-11-13T02:57:19.031Z,56.40
2022-11-13T02:59:48.930Z,56.56
2022-11-13T03:02:22.257Z,56.21
2022-11-13T03:05:17.314Z,56.11
2022-11-13T03:07:52.647Z,56.20
2022-11-13T03:10:31.631Z,55.94
2022-11-13T03:13:09.885Z,56.51
2022-11-13T03:15:45.724Z,56.45
2022-11-13T03:18:20.047Z,56.14
2022-11-13T03:20:56.384Z,56.29
2022-11-13T03:23:25.603Z,55.17
2022-11-13T03:26:00.577Z,54.83
2022-11-13T03:28:34.177Z,54.95
2022-11-13T03:31:07.117Z,54.83
2022-11-13T03:33:44.493Z,54.94
2022-11-13T03:36:15.161Z,54.09
2022-11-13T03:38:48.564Z,52.59
2022-11-13T03:44:21.729Z,51.68
2022-11-13T03:49:56.175Z,50.61
2022-11-13T03:52:25.037Z,50.93
2022-11-13T03:54:57.388Z,51.48
2022-11-13T03:57:28.295Z,51.51
2022-11-13T03:59:59.218Z,52.60
2022-11-13T04:02:29.705Z,51.69
2022-11-13T04:07:49.844Z,52.18
2022-11-13T04:10:19.879Z,51.67
2022-11-13T04:12:50.572Z,51.00
2022-11-13T04:15:25.346Z,51.31
2022-11-13T04:17:55.822Z,52.36
2022-11-13T04:20:32.998Z,53.14
2022-11-13T04:23:19.592Z,52.74
2022-11-13T04:25:54.575Z,54.46
2022-11-13T04:28:25.110Z,54.59
2022-11-13T04:30:56.598Z,54.42
2022-11-13T04:33:30.318Z,54.99
2022-11-13T04:36:02.234Z,54.46
2022-11-13T04:38:41.245Z,54.66
2022-11-13T04:41:31.413Z,54.11
2022-11-13T04:44:05.144Z,54.01
2022-11-13T04:46:36.268Z,53.59
2022-11-13T04:49:11.559Z,54.47
2022-11-13T04:51:47.592Z,54.98
2022-11-13T04:54:28.516Z,56.29
2022-11-13T04:57:02.670Z,55.38
2022-11-13T04:59:36.003Z,56.09
2022-11-13T05:02:06.258Z,56.23
2022-11-13T05:04:39.312Z,56.28
2022-11-13T05:07:11.711Z,56.05
2022-11-13T05:09:54.185Z,56.52
2022-11-13T05:15:26.170Z,56.07
2022-11-13T05:17:57.498Z,56.39
2022-11-13T05:20:29.937Z,56.16
2022-11-13T05:23:00.355Z,56.91
2022-11-13T05:25:36.419Z,57.23
2022-11-13T05:28:09.315Z,57.18
2022-11-13T05:30:43.356Z,56.04
2022-11-13T05:33:15.321Z,55.62
2022-11-13T05:35:44.246Z,56.24
2022-11-13T05:38:14.385Z,56.53
2022-11-13T05:40:47.528Z,56.64
2022-11-13T05:43:20.933Z,56.46
2022-11-13T05:46:02.970Z,56.25
2022-11-13T05:48:39.186Z,56.51
2022-11-13T05:51:17.596Z,56.04
2022-11-13T05:56:27.588Z,56.63
2022-11-13T05:59:02.211Z,56.68
2022-11-13T06:01:34.845Z,56.22
2022-11-13T06:04:07.670Z,56.54
2022-11-13T06:06:41.339Z,56.59
2022-11-13T06:14:55.184Z,60.28
2022-11-13T06:20:08.187Z,67.32
2022-11-13T06:22:36.348Z,73.65
2022-11-13T06:25:04.754Z,82.11
2022-11-13T06:27:35.217Z,82.98
2022-11-13T06:30:04.111Z,81.70
2022-11-13T06:32:32.395Z,80.50
2022-11-13T06:35:00.578Z,82.64
2022-11-13T06:37:32.481Z,81.93
2022-11-13T06:40:03.030Z,81.10
2022-11-13T06:42:32.194Z,78.33
2022-11-13T06:45:01.917Z,76.83
2022-11-13T06:47:31.855Z,75.71
2022-11-13T06:49:59.828Z,74.68
2022-11-13T06:52:28.013Z,72.94
2022-11-13T06:54:56.110Z,71.03
2022-11-13T06:57:24.223Z,69.71
2022-11-13T06:59:55.815Z,69.75
2022-11-13T07:02:25.348Z,68.76
2022-11-13T07:04:53.377Z,68.41
2022-11-13T07:07:21.462Z,67.21
2022-11-13T07:09:49.754Z,66.65
2022-11-13T07:12:18.144Z,66.11
2022-11-13T07:14:46.361Z,66.51
2022-11-13T07:17:14.517Z,65.95
2022-11-13T07:19:44.127Z,66.75
2022-11-13T07:22:12.161Z,65.93
2022-11-13T07:24:40.886Z,65.93
2022-11-13T07:27:09.108Z,64.47
2022-11-13T07:32:42.825Z,62.36
2022-11-13T07:35:12.511Z,61.80
2022-11-13T07:37:41.064Z,62.06
2022-11-13T07:40:09.803Z,61.00
2022-11-13T07:42:38.079Z,62.08
2022-11-13T07:45:06.592Z,62.17
2022-11-13T07:47:34.947Z,61.61
2022-11-13T07:50:08.383Z,60.77
2022-11-13T07:52:40.658Z,60.69
2022-11-13T07:55:09.629Z,60.82
2022-11-13T07:57:37.934Z,60.26
2022-11-13T08:00:06.961Z,60.03
2022-11-13T08:02:35.399Z,60.02
2022-11-13T08:05:03.918Z,60.36
2022-11-13T08:07:32.038Z,61.28
2022-11-13T08:10:01.817Z,60.72
2022-11-13T08:12:31.952Z,60.99
2022-11-13T08:15:00.665Z,60.79
2022-11-13T08:17:28.665Z,60.50
2022-11-13T08:19:56.913Z,60.33
2022-11-13T08:22:25.031Z,60.64
2022-11-13T08:24:54.608Z,60.25
2022-11-13T08:27:24.468Z,60.61
2022-11-13T08:29:53.165Z,61.29
2022-11-13T08:32:23.003Z,62.25
2022-11-13T08:34:52.064Z,62.12
2022-11-13T08:37:20.519Z,62.11
2022-11-13T08:39:49.477Z,61.91
2022-11-13T08:42:17.700Z,62.46
2022-11-13T08:44:47.685Z,61.82
2022-11-13T08:47:15.776Z,62.25
2022-11-13T08:49:44.001Z,61.77
2022-11-13T08:52:14.905Z,62.67
2022-11-13T08:54:43.177Z,62.48
2022-11-13T08:57:11.732Z,62.99
2022-11-13T08:59:39.827Z,62.75
2022-11-13T09:02:13.074Z,62.82
2022-11-13T09:04:41.510Z,63.17
2022-11-13T09:07:10.068Z,62.69
2022-11-13T09:09:38.699Z,61.64
2022-11-13T09:12:07.334Z,61.40
2022-11-13T09:14:38.617Z,61.27
2022-11-13T09:17:06.694Z,61.15
2022-11-13T09:19:36.387Z,59.68
2022-11-13T09:22:05.027Z,60.38
2022-11-13T09:24:33.724Z,60.08
2022-11-13T09:27:02.265Z,59.62
2022-11-13T09:29:30.552Z,59.82
2022-11-13T09:31:59.884Z,60.15
2022-11-13T09:34:28.504Z,58.50
2022-11-13T09:36:58.251Z,58.16
2022-11-13T09:39:26.876Z,56.45
2022-11-13T09:41:56.646Z,56.16
2022-11-13T09:44:31.912Z,56.10
2022-11-13T09:47:05.237Z,56.01
2022-11-13T09:49:34.598Z,55.00
2022-11-13T09:52:07.678Z,53.63
2022-11-13T09:54:36.223Z,54.32
2022-11-13T09:57:06.995Z,53.51
2022-11-13T09:59:38.769Z,52.45
2022-11-13T10:02:15.278Z,53.46
2022-11-13T10:04:51.369Z,52.95
2022-11-13T10:07:27.036Z,52.28
2022-11-13T10:10:00.889Z,52.46
2022-11-13T10:12:30.495Z,53.36
2022-11-13T10:15:02.189Z,52.01
2022-11-13T10:17:36.005Z,52.42
2022-11-13T10:20:05.875Z,52.92
2022-11-13T10:22:37.433Z,52.89
2022-11-13T10:25:13.536Z,53.13
2022-11-13T10:27:42.303Z,53.33
2022-11-13T10:30:15.349Z,53.26
2022-11-13T10:32:44.987Z,52.75
2022-11-13T10:35:28.581Z,53.86
2022-11-13T10:38:06.610Z,54.76
2022-11-13T10:40:37.705Z,56.14
2022-11-13T10:43:06.810Z,56.40
2022-11-13T10:45:35.641Z,56.65
2022-11-13T10:48:05.341Z,56.76
2022-11-13T10:50:35.819Z,56.43
2022-11-13T10:53:16.986Z,57.37
2022-11-13T10:55:47.282Z,57.05
2022-11-13T10:58:17.101Z,57.73
2022-11-13T11:00:49.554Z,57.62
2022-11-13T11:03:19.062Z,57.61
2022-11-13T11:05:55.260Z,57.71
2022-11-13T11:08:28.278Z,57.98
2022-11-13T11:11:18.387Z,58.23
2022-11-13T11:13:47.086Z,57.69
2022-11-13T11:16:19.685Z,57.59
2022-11-13T11:18:52.317Z,57.66
2022-11-13T11:21:24.281Z,58.69
2022-11-13T11:23:57.561Z,57.67
2022-11-13T11:26:29.107Z,57.61
2022-11-13T11:29:03.307Z,57.50
2022-11-13T11:31:35.203Z,57.23
2022-11-13T11:34:09.261Z,54.51
2022-11-13T11:36:42.922Z,52.80
2022-11-13T11:39:23.193Z,52.98
2022-11-13T11:41:56.374Z,53.28
2022-11-13T11:44:31.973Z,53.53
2022-11-13T11:47:00.919Z,51.77
2022-11-13T11:49:30.032Z,52.67
2022-11-13T11:52:07.572Z,52.91
2022-11-13T11:54:44.609Z,52.77
2022-11-13T11:57:22.766Z,53.79
2022-11-13T12:00:03.283Z,53.97
2022-11-13T12:02:51.028Z,53.57
2022-11-13T12:18:48.420Z,55.40
2022-11-13T12:21:29.381Z,55.71
2022-11-13T12:24:17.106Z,56.86
2022-11-13T12:26:48.999Z,55.40
2022-11-13T12:29:27.714Z,55.40
2022-11-13T12:32:07.017Z,55.49
2022-11-13T12:34:40.648Z,54.84
2022-11-13T12:37:15.205Z,54.99
2022-11-13T12:39:49.968Z,54.97
2022-11-13T12:42:27.579Z,55.77
2022-11-13T12:45:06.498Z,56.14
2022-11-13T12:47:42.550Z,54.77
2022-11-13T12:50:32.706Z,54.76
2022-11-13T12:53:07.078Z,54.46
2022-11-13T12:55:43.298Z,55.64
2022-11-13T12:58:21.280Z,55.72
2022-11-13T13:00:57.714Z,55.89
2022-11-13T13:03:36.435Z,56.49
2022-11-13T13:06:25.857Z,56.28
2022-11-13T13:09:13.734Z,56.54
2022-11-13T13:11:47.312Z,57.49
2022-11-13T13:14:28.575Z,58.86
2022-11-13T13:17:13.833Z,59.18
2022-11-13T13:19:48.581Z,60.23
2022-11-13T13:22:33.491Z,60.30
2022-11-13T13:25:07.510Z,59.46
2022-11-13T13:27:41.032Z,58.86
2022-11-13T13:30:22.318Z,59.30
2022-11-13T13:33:06.897Z,59.86
2022-11-13T13:35:46.275Z,59.30
2022-11-13T13:38:21.741Z,59.06
2022-11-13T13:40:59.512Z,58.52
2022-11-13T13:43:37.568Z,59.23
2022-11-13T13:46:14.533Z,58.44
2022-11-13T13:48:48.085Z,58.95
2022-11-13T13:51:32.242Z,59.25
2022-11-13T13:59:57.027Z,63.26
2022-11-13T14:02:27.340Z,63.26
2022-11-13T14:05:01.951Z,63.51
2022-11-13T14:07:40.870Z,62.39
2022-11-13T14:10:15.985Z,62.18
2022-11-13T14:13:06.860Z,61.57
2022-11-13T14:15:40.394Z,62.27
2022-11-13T14:18:14.888Z,62.17
2022-11-13T14:20:51.811Z,61.80
2022-11-13T14:23:26.119Z,60.81
2022-11-13T14:26:03.428Z,60.91
2022-11-13T14:28:53.180Z,60.58
2022-11-13T14:31:32.046Z,60.22
2022-11-13T14:34:15.362Z,60.12
2022-11-13T14:36:50.067Z,60.20
2022-11-13T14:39:28.268Z,59.96
2022-11-13T14:42:00.740Z,59.67
2022-11-13T14:44:43.866Z,60.09
2022-11-13T14:47:32.962Z,59.84
2022-11-13T14:50:13.569Z,59.48
2022-11-13T14:52:51.469Z,59.41
2022-11-13T14:55:37.287Z,59.13
2022-11-13T14:58:16.690Z,59.14
2022-11-13T15:00:50.932Z,59.53
2022-11-13T15:03:25.825Z,59.45
2022-11-13T15:05:59.939Z,59.17
2022-11-13T15:08:36.584Z,58.89
2022-11-13T15:11:12.733Z,59.44
2022-11-13T15:13:51.194Z,59.54
2022-11-13T15:16:28.800Z,59.42
2022-11-13T15:19:03.367Z,59.40
2022-11-13T15:21:34.316Z,59.74
2022-11-13T15:24:08.627Z,59.13
2022-11-13T15:26:39.764Z,59.42
2022-11-13T15:29:10.107Z,59.74
2022-11-13T15:31:52.944Z,60.26
2022-11-13T15:34:27.539Z,59.54
2022-11-13T15:37:07.464Z,60.12
2022-11-13T15:42:35.443Z,60.35
2022-11-13T15:45:10.377Z,60.53
2022-11-13T15:47:51.526Z,60.77
2022-11-13T15:50:25.840Z,60.17
2022-11-13T15:53:05.205Z,60.79
2022-11-13T15:55:40.099Z,60.79
2022-11-13T15:58:20.771Z,60.50
2022-11-13T16:01:03.679Z,60.03
2022-11-13T16:03:48.586Z,60.34
2022-11-13T16:06:22.475Z,60.60
2022-11-13T16:08:54.447Z,60.56
2022-11-13T16:11:29.615Z,61.20
2022-11-13T16:14:00.800Z,61.39
2022-11-13T16:16:36.731Z,60.81
2022-11-13T16:19:12.097Z,60.77
2022-11-13T16:21:42.983Z,60.79
2022-11-13T16:24:13.886Z,60.80
2022-11-13T16:26:45.357Z,61.18
2022-11-13T16:29:19.611Z,61.17
2022-11-13T16:31:52.063Z,60.83
2022-11-13T16:34:26.960Z,60.84
2022-11-13T16:36:56.585Z,59.60
2022-11-13T16:39:27.412Z,60.65
2022-11-13T16:41:56.346Z,60.69
2022-11-13T16:44:27.443Z,61.05
2022-11-13T16:47:01.454Z,61.01
2022-11-13T16:49:36.162Z,60.95
2022-11-13T16:52:13.279Z,60.06
2022-11-13T16:54:46.020Z,60.60
2022-11-13T16:57:16.504Z,60.46
2022-11-13T16:59:46.440Z,59.91
2022-11-13T17:02:18.757Z,60.36
2022-11-13T17:04:50.533Z,60.72
2022-11-13T17:07:25.108Z,60.75
2022-11-13T17:13:13.436Z,61.75
2022-11-13T17:15:44.194Z,62.59
2022-11-13T17:18:14.304Z,63.20
2022-11-13T17:20:50.335Z,62.52
2022-11-13T17:23:28.795Z,62.06
2022-11-13T17:25:58.976Z,61.11
2022-11-13T17:31:20.341Z,60.89
2022-11-13T17:33:51.297Z,61.12
2022-11-13T17:36:23.831Z,60.38
2022-11-13T17:38:53.419Z,60.99
2022-11-13T17:41:25.668Z,61.06
2022-11-13T17:44:01.095Z,60.68
2022-11-13T17:46:30.950Z,60.90
2022-11-13T17:49:00.243Z,60.93
2022-11-13T17:51:30.343Z,61.93
2022-11-13T17:54:00.741Z,62.81
2022-11-13T17:56:32.251Z,63.08
2022-11-13T17:59:04.485Z,63.34
2022-11-13T18:01:37.641Z,63.72
2022-11-13T18:04:07.318Z,65.07
2022-11-13T18:06:41.674Z,65.22
2022-11-13T18:09:13.428Z,66.43
2022-11-13T18:11:42.835Z,66.16
2022-11-13T18:14:11.593Z,66.82
2022-11-13T18:16:43.994Z,66.78
2022-11-13T18:19:12.740Z,65.11
2022-11-13T18:21:44.320Z,65.48
2022-11-13T18:24:16.803Z,65.40
2022-11-13T18:26:46.628Z,66.09
2022-11-13T18:29:19.211Z,66.73
2022-11-13T18:31:49.455Z,67.03
2022-11-13T18:34:18.955Z,67.51
2022-11-13T18:36:49.454Z,67.13
2022-11-13T18:39:19.712Z,66.98
2022-11-13T18:41:50.561Z,67.50
2022-11-13T18:44:20.440Z,66.87
2022-11-13T18:46:50.706Z,66.79
2022-11-13T18:49:19.886Z,67.45
2022-11-13T18:54:35.353Z,68.29
2022-11-13T18:57:05.312Z,68.49
2022-11-13T18:59:34.704Z,68.65
2022-11-13T19:02:03.821Z,67.83
2022-11-13T19:04:32.378Z,68.40
2022-11-13T19:07:01.370Z,68.15
2022-11-13T19:09:32.307Z,67.67
2022-11-13T19:12:05.151Z,67.79
2022-11-13T19:14:34.234Z,67.82
2022-11-13T19:17:04.045Z,67.29
2022-11-13T19:19:34.046Z,67.41
2022-11-13T19:22:03.323Z,66.81
2022-11-13T19:24:31.795Z,67.41
2022-11-13T19:27:02.473Z,67.68
2022-11-13T19:29:30.949Z,67.24
2022-11-13T19:32:00.224Z,67.75
2022-11-13T19:34:29.577Z,67.59
2022-11-13T19:36:59.318Z,67.47
2022-11-13T19:39:33.353Z,68.05
2022-11-13T19:42:06.574Z,67.89
2022-11-13T19:44:35.790Z,67.44
2022-11-13T19:47:04.530Z,66.68
2022-11-13T19:49:35.379Z,66.75
2022-11-13T19:52:05.878Z,66.98
2022-11-13T19:54:35.500Z,67.81
2022-11-13T19:57:08.185Z,67.78
2022-11-13T19:59:37.804Z,67.22
2022-11-13T20:02:07.298Z,67.47
2022-11-13T20:04:37.194Z,67.31
2022-11-13T20:07:08.112Z,66.82
2022-11-13T20:09:37.794Z,66.94
2022-11-13T20:12:10.094Z,66.91
2022-11-13T20:14:38.896Z,66.45
2022-11-13T20:17:08.746Z,67.04
2022-11-13T20:19:37.494Z,67.52
2022-11-13T20:22:06.593Z,68.03
2022-11-13T20:24:39.572Z,68.53
2022-11-13T20:30:01.009Z,69.35
2022-11-13T20:32:29.879Z,68.50
2022-11-13T20:35:01.376Z,68.96
2022-11-13T20:37:30.903Z,69.01
2022-11-13T20:40:05.579Z,68.15
2022-11-13T20:42:36.283Z,68.27
2022-11-13T20:45:07.263Z,68.23
2022-11-13T20:47:38.435Z,68.46
2022-11-13T20:50:08.439Z,68.23
2022-11-13T20:52:37.155Z,67.29
2022-11-13T20:55:06.887Z,67.57
2022-11-13T20:57:40.740Z,67.75
2022-11-13T21:00:12.898Z,67.09
2022-11-13T21:02:42.705Z,66.85
2022-11-13T21:05:11.626Z,66.87
2022-11-13T21:07:41.772Z,66.40
2022-11-13T21:10:10.902Z,66.27
2022-11-13T21:12:39.620Z,66.16
2022-11-13T21:15:09.839Z,66.76
2022-11-13T21:17:40.252Z,66.60
2022-11-13T21:20:09.900Z,65.72
2022-11-13T21:22:39.740Z,65.96
2022-11-13T21:25:09.146Z,65.53
2022-11-13T21:27:38.043Z,65.50
2022-11-13T21:30:09.273Z,65.46
2022-11-13T21:32:38.955Z,67.39
2022-11-13T21:35:11.713Z,70.12
2022-11-13T21:37:41.068Z,71.01
2022-11-13T21:40:13.209Z,72.57
2022-11-13T21:42:43.205Z,72.41
2022-11-13T21:45:13.123Z,72.66
2022-11-13T21:47:44.891Z,74.24
2022-11-13T21:50:18.770Z,74.56
2022-11-13T21:52:53.292Z,74.37
2022-11-13T21:55:25.283Z,73.93
2022-11-13T21:58:00.597Z,74.92
2022-11-13T22:00:34.458Z,76.04
2022-11-13T22:03:05.251Z,76.34
2022-11-13T22:05:42.373Z,76.53
2022-11-13T22:08:11.208Z,76.74
2022-11-13T22:10:40.845Z,76.90
2022-11-13T22:13:11.672Z,78.10
2022-11-13T22:15:41.035Z,77.71
2022-11-13T22:18:11.735Z,76.84
2022-11-13T22:20:43.935Z,77.06
2022-11-13T22:23:13.871Z,77.08
2022-11-13T22:25:43.425Z,76.34
2022-11-13T22:28:12.903Z,76.33
2022-11-13T22:30:41.340Z,75.74
2022-11-13T22:33:09.839Z,75.52
2022-11-13T22:35:38.246Z,74.63
2022-11-13T22:38:08.213Z,74.20
2022-11-13T22:40:37.653Z,74.59
2022-11-13T22:48:42.434Z,73.03
2022-11-13T22:51:11.530Z,72.51
2022-11-13T22:53:42.388Z,71.73
2022-11-13T22:56:12.953Z,70.73
2022-11-13T22:58:42.872Z,70.46
2022-11-13T23:01:14.838Z,70.65
2022-11-13T23:03:45.352Z,70.58
2022-11-13T23:06:14.711Z,69.56
2022-11-13T23:08:47.089Z,70.55
2022-11-13T23:11:17.016Z,69.59
2022-11-13T23:13:46.527Z,69.96
2022-11-13T23:16:15.308Z,68.10
2022-11-13T23:18:44.003Z,67.58
2022-11-13T23:21:13.219Z,66.84
2022-11-13T23:23:41.719Z,67.52
2022-11-13T23:26:12.786Z,66.60
2022-11-13T23:28:41.859Z,66.84
2022-11-13T23:31:10.724Z,66.54
2022-11-13T23:33:40.602Z,65.39
2022-11-13T23:36:10.099Z,64.38
2022-11-13T23:41:28.250Z,65.10
2022-11-13T23:44:12.051Z,66.14
2022-11-13T23:46:40.875Z,66.06
2022-11-13T23:49:09.081Z,65.76
2022-11-13T23:51:38.137Z,66.25
2022-11-13T23:54:07.222Z,67.03
2022-11-13T23:56:36.913Z,67.79
2022-11-13T23:59:05.286Z,67.63
